Kevil, Kentucky
Current Conditions -  °F | °C
As of 1:53 AM on Sunday 21 Dec 2014 (Local Time) from KPAH Reporting Station
Haze Haze  
Wind Chill: -3°   Ceiling: Unl
Heat Index: -3°   Visibility: 5mi
Dew Point: -4°   Wind: 0mph
Humidity: 92%   Direction: NA
Pressure: 30.27"   Gusts: NA
Location:  37.09°N, 88.89°W
Report Text: KPAH 210753Z AUTO 00000KT 5SM BR CLR M03/M04 A3027 RMK AO2 SLP252 I1000 T10281039
Loading
Personal Weather Stations






























Interactive Weather Map New forecast layout! Learn more

10-Day Weather Forecast

Advertisements
Track Severe Weather on mobile